Aeroporto :
LOGIN :

Iscrizione | Disclaimer

   EN    FR    IT 

 










Sommario :    VFR   VFR Marginale   IFR   IFR Intensivo   IFR Molto Intensivo
Visibilità : 
Base nubi : 
>= 8 km
>= 3000ft
5 / 8 km
1000 / 3000 ft
1500m / 5 km
500 / 1000 ft
800 / 1500m
200 / 500 ft
< 800m
< 200 ft
Simboli :   Temporali  Nebbia  Neve Forte  Precipitazioni Forti  Vento > 20 kt
SIGMETs :   Varie  Temporali  Ghiacco  Turbolenza  Onda orograficha  Ceneri Vulcaniche







- Altitudine del aeroporto : 0 ft


ETWM - Meppe

ULTIMO METAR :
  • 121520Z 22006KT 9999 FEW020 SCT043 BKN061 02/01 Q1008 BLU

METARs OBSOLETI :
  • 121420Z 25006KT 9999 FEW015 BKN023 02/01 Q1007 WHT
  • 121350Z 24010KT 9999 SCT014 BKN040 02/01 Q1006 BLU
  • 121320Z 25008KT 9999 SCT004 BKN012 02/01 Q1006 GRN
  • 121249Z 26007KT 9000 -RASN FEW003 BKN004 BKN010 01/01 Q1005 YLO

TAF N/A
Nessun NOTAM noto per questo aeroporto.



MetMap, La meteo Aeronautica in un colpo d'occhio ! - Copyright ORBIFLY Dicembre 2007 - Disclaimer

ORBIFLY MET'MAP TEAM :

Programmazione e sviluppo : Alexandra Zaïnal
Concezione e sviluppo : Baudouin d'Aumeries
Co-Programmazione e sviluppo : Marc-Olivier Méhu
Supporto tecnico e logistico : Manuel Goepfert
Aiuto per la traduzione : Arnaldo La Scala

Contatto : metmap@orbifly.com




FONTI E CREDITI :

   NOAA